sensor_id;sensor_type;location;lat;lon;timestamp;pressure;altitude;pressure_sealevel;temperature;humidity
62025;BME280;47978;49.118;12.146;2022-08-25T00:01:33;97709.47;;;17.08;87.01
62025;BME280;47978;49.118;12.146;2022-08-25T00:04:02;97707.66;;;16.92;87.96
62025;BME280;47978;49.118;12.146;2022-08-25T00:06:29;97715.13;;;16.79;88.03
62025;BME280;47978;49.118;12.146;2022-08-25T00:08:56;97706.81;;;16.70;88.46
62025;BME280;47978;49.118;12.146;2022-08-25T00:11:26;97702.38;;;16.69;88.27
62025;BME280;47978;49.118;12.146;2022-08-25T00:13:56;97708.53;;;16.62;88.85
62025;BME280;47978;49.118;12.146;2022-08-25T00:16:23;97706.56;;;16.63;88.90
62025;BME280;47978;49.118;12.146;2022-08-25T00:18:52;97712.81;;;16.60;88.77
62025;BME280;47978;49.118;12.146;2022-08-25T00:21:20;97712.19;;;16.54;88.97
62025;BME280;47978;49.118;12.146;2022-08-25T00:23:46;97707.44;;;16.55;88.65
62025;BME280;47978;49.118;12.146;2022-08-25T00:26:13;97709.72;;;16.53;88.92
62025;BME280;47978;49.118;12.146;2022-08-25T00:28:42;97702.78;;;16.38;89.38
62025;BME280;47978;49.118;12.146;2022-08-25T00:31:10;97710.47;;;16.41;88.99
62025;BME280;47978;49.118;12.146;2022-08-25T00:33:37;97707.69;;;16.41;89.27
62025;BME280;47978;49.118;12.146;2022-08-25T00:36:04;97702.72;;;16.47;88.66
62025;BME280;47978;49.118;12.146;2022-08-25T00:38:31;97699.88;;;16.34;89.37
62025;BME280;47978;49.118;12.146;2022-08-25T00:40:57;97694.59;;;16.33;89.24
62025;BME280;47978;49.118;12.146;2022-08-25T00:43:25;97701.28;;;16.40;89.24
62025;BME280;47978;49.118;12.146;2022-08-25T00:45:53;97699.44;;;16.45;88.97
62025;BME280;47978;49.118;12.146;2022-08-25T00:48:19;97696.47;;;16.50;88.92
62025;BME280;47978;49.118;12.146;2022-08-25T00:50:46;97697.13;;;16.47;88.72
62025;BME280;47978;49.118;12.146;2022-08-25T00:53:12;97691.63;;;16.38;89.10
62025;BME280;47978;49.118;12.146;2022-08-25T00:55:39;97686.44;;;16.28;89.18
62025;BME280;47978;49.118;12.146;2022-08-25T00:58:08;97688.97;;;16.21;89.20
62025;BME280;47978;49.118;12.146;2022-08-25T01:00:39;97690.19;;;16.11;89.29
62025;BME280;47978;49.118;12.146;2022-08-25T01:03:08;97685.91;;;16.05;89.44
62025;BME280;47978;49.118;12.146;2022-08-25T01:05:35;97681.47;;;16.12;89.25
62025;BME280;47978;49.118;12.146;2022-08-25T01:08:03;97683.69;;;16.19;89.38
62025;BME280;47978;49.118;12.146;2022-08-25T01:10:33;97683.69;;;16.19;89.18
62025;BME280;47978;49.118;12.146;2022-08-25T01:13:08;97690.13;;;16.19;89.36
62025;BME280;47978;49.118;12.146;2022-08-25T01:15:42;97691.44;;;16.13;89.17
62025;BME280;47978;49.118;12.146;2022-08-25T01:18:10;97685.59;;;16.06;89.44
62025;BME280;47978;49.118;12.146;2022-08-25T01:20:37;97683.34;;;16.00;89.62
62025;BME280;47978;49.118;12.146;2022-08-25T01:23:05;97683.03;;;15.92;89.92
62025;BME280;47978;49.118;12.146;2022-08-25T01:25:37;97686.50;;;15.89;90.07
62025;BME280;47978;49.118;12.146;2022-08-25T01:28:07;97691.13;;;15.85;90.36
62025;BME280;47978;49.118;12.146;2022-08-25T01:30:35;97685.22;;;15.87;89.96
62025;BME280;47978;49.118;12.146;2022-08-25T01:33:03;97693.50;;;15.66;90.30
62025;BME280;47978;49.118;12.146;2022-08-25T01:35:30;97692.31;;;15.76;90.34
62025;BME280;47978;49.118;12.146;2022-08-25T01:37:56;97693.50;;;15.66;90.63
62025;BME280;47978;49.118;12.146;2022-08-25T01:40:25;97689.72;;;15.62;90.78
62025;BME280;47978;49.118;12.146;2022-08-25T01:42:57;97686.63;;;15.63;90.93
62025;BME280;47978;49.118;12.146;2022-08-25T01:45:27;97680.53;;;15.61;90.56
62025;BME280;47978;49.118;12.146;2022-08-25T01:47:54;97684.50;;;15.69;90.32
62025;BME280;47978;49.118;12.146;2022-08-25T01:50:20;97677.25;;;15.59;90.81
62025;BME280;47978;49.118;12.146;2022-08-25T01:52:50;97684.31;;;15.57;90.98
62025;BME280;47978;49.118;12.146;2022-08-25T01:55:19;97666.78;;;15.56;91.07
62025;BME280;47978;49.118;12.146;2022-08-25T01:57:47;97676.84;;;15.48;90.82
62025;BME280;47978;49.118;12.146;2022-08-25T02:00:15;97669.94;;;15.55;90.80
62025;BME280;47978;49.118;12.146;2022-08-25T02:02:43;97671.72;;;15.50;90.97
62025;BME280;47978;49.118;12.146;2022-08-25T02:05:10;97668.16;;;15.41;90.95
62025;BME280;47978;49.118;12.146;2022-08-25T02:07:37;97667.88;;;15.34;90.98
62025;BME280;47978;49.118;12.146;2022-08-25T02:10:05;97676.53;;;15.41;91.22
62025;BME280;47978;49.118;12.146;2022-08-25T02:12:32;97680.50;;;15.32;91.22
62025;BME280;47978;49.118;12.146;2022-08-25T02:15:00;97674.75;;;15.28;91.52
62025;BME280;47978;49.118;12.146;2022-08-25T02:17:28;97677.06;;;15.26;91.58
62025;BME280;47978;49.118;12.146;2022-08-25T02:19:55;97676.72;;;15.27;91.34
62025;BME280;47978;49.118;12.146;2022-08-25T02:22:22;97668.19;;;15.33;91.64
62025;BME280;47978;49.118;12.146;2022-08-25T02:24:48;97670.03;;;15.28;91.26
62025;BME280;47978;49.118;12.146;2022-08-25T02:27:15;97667.41;;;15.23;91.62
62025;BME280;47978;49.118;12.146;2022-08-25T02:29:42;97662.66;;;15.24;91.40
62025;BME280;47978;49.118;12.146;2022-08-25T02:32:10;97658.72;;;15.25;91.54
62025;BME280;47978;49.118;12.146;2022-08-25T02:34:37;97665.09;;;15.34;91.14
62025;BME280;47978;49.118;12.146;2022-08-25T02:37:03;97659.00;;;15.41;90.59
62025;BME280;47978;49.118;12.146;2022-08-25T02:39:30;97655.25;;;15.28;90.68
62025;BME280;47978;49.118;12.146;2022-08-25T02:41:57;97658.41;;;15.18;91.09
62025;BME280;47978;49.118;12.146;2022-08-25T02:44:23;97656.47;;;15.10;91.59
62025;BME280;47978;49.118;12.146;2022-08-25T02:46:50;97649.44;;;15.03;91.59
62025;BME280;47978;49.118;12.146;2022-08-25T02:49:18;97654.19;;;15.03;91.72
62025;BME280;47978;49.118;12.146;2022-08-25T02:51:44;97654.84;;;14.91;92.11
62025;BME280;47978;49.118;12.146;2022-08-25T02:54:11;97654.53;;;15.01;91.85
62025;BME280;47978;49.118;12.146;2022-08-25T02:56:37;97650.09;;;15.09;91.82
62025;BME280;47978;49.118;12.146;2022-08-25T02:59:05;97659.91;;;15.06;91.39
62025;BME280;47978;49.118;12.146;2022-08-25T03:01:32;97648.00;;;14.97;91.10
62025;BME280;47978;49.118;12.146;2022-08-25T03:03:59;97650.13;;;14.92;91.60
62025;BME280;47978;49.118;12.146;2022-08-25T03:06:27;97652.06;;;14.91;91.83
62025;BME280;47978;49.118;12.146;2022-08-25T03:08:54;97641.44;;;14.84;92.02
62025;BME280;47978;49.118;12.146;2022-08-25T03:11:21;97637.03;;;14.92;92.00
62025;BME280;47978;49.118;12.146;2022-08-25T03:13:48;97642.75;;;14.87;91.81
62025;BME280;47978;49.118;12.146;2022-08-25T03:16:14;97647.16;;;14.88;92.13
62025;BME280;47978;49.118;12.146;2022-08-25T03:18:42;97639.00;;;14.83;91.88
62025;BME280;47978;49.118;12.146;2022-08-25T03:21:09;97634.56;;;14.82;92.01
62025;BME280;47978;49.118;12.146;2022-08-25T03:23:38;97636.03;;;14.88;91.87
62025;BME280;47978;49.118;12.146;2022-08-25T03:26:05;97629.16;;;14.94;91.88
62025;BME280;47978;49.118;12.146;2022-08-25T03:28:33;97628.63;;;15.01;91.42
62025;BME280;47978;49.118;12.146;2022-08-25T03:31:00;97627.00;;;15.00;91.19
62025;BME280;47978;49.118;12.146;2022-08-25T03:33:27;97630.44;;;14.97;91.13
62025;BME280;47978;49.118;12.146;2022-08-25T03:35:53;97622.44;;;14.95;91.51
62025;BME280;47978;49.118;12.146;2022-08-25T03:38:20;97631.28;;;14.97;91.24
62025;BME280;47978;49.118;12.146;2022-08-25T03:40:48;97634.91;;;14.89;91.47
62025;BME280;47978;49.118;12.146;2022-08-25T03:43:15;97633.75;;;14.81;91.31
62025;BME280;47978;49.118;12.146;2022-08-25T03:45:43;97630.03;;;14.69;92.07
62025;BME280;47978;49.118;12.146;2022-08-25T03:48:10;97632.97;;;14.72;92.25
62025;BME280;47978;49.118;12.146;2022-08-25T03:50:36;97637.06;;;14.75;91.84
62025;BME280;47978;49.118;12.146;2022-08-25T03:53:16;97634.28;;;14.66;91.94
62025;BME280;47978;49.118;12.146;2022-08-25T03:55:42;97642.81;;;14.61;92.43
62025;BME280;47978;49.118;12.146;2022-08-25T03:58:10;97636.56;;;14.73;92.17
62025;BME280;47978;49.118;12.146;2022-08-25T04:00:37;97644.59;;;14.74;91.78
62025;BME280;47978;49.118;12.146;2022-08-25T04:03:04;97643.94;;;14.69;91.95
62025;BME280;47978;49.118;12.146;2022-08-25T04:05:31;97640.00;;;14.78;92.01
62025;BME280;47978;49.118;12.146;2022-08-25T04:07:59;97637.03;;;14.83;91.67
62025;BME280;47978;49.118;12.146;2022-08-25T04:10:26;97644.41;;;14.79;91.61
62025;BME280;47978;49.118;12.146;2022-08-25T04:12:53;97643.28;;;14.80;91.23
62025;BME280;47978;49.118;12.146;2022-08-25T04:15:20;97639.50;;;14.76;91.49
62025;BME280;47978;49.118;12.146;2022-08-25T04:17:47;97638.84;;;14.71;91.85
62025;BME280;47978;49.118;12.146;2022-08-25T04:20:17;97627.25;;;14.69;91.83
62025;BME280;47978;49.118;12.146;2022-08-25T04:22:44;97635.91;;;14.67;91.45
62025;BME280;47978;49.118;12.146;2022-08-25T04:25:11;97633.94;;;14.76;91.48
62025;BME280;47978;49.118;12.146;2022-08-25T04:27:38;97630.47;;;14.88;91.33
62025;BME280;47978;49.118;12.146;2022-08-25T04:30:06;97630.97;;;14.90;90.86
62025;BME280;47978;49.118;12.146;2022-08-25T04:32:35;97631.09;;;14.94;91.13
62025;BME280;47978;49.118;12.146;2022-08-25T04:35:02;97624.56;;;14.90;91.02
62025;BME280;47978;49.118;12.146;2022-08-25T04:37:29;97620.31;;;14.92;90.65
62025;BME280;47978;49.118;12.146;2022-08-25T04:39:55;97612.44;;;14.94;90.91
62025;BME280;47978;49.118;12.146;2022-08-25T04:42:22;97619.66;;;14.95;90.95
62025;BME280;47978;49.118;12.146;2022-08-25T04:44:48;97623.72;;;15.06;90.53
62025;BME280;47978;49.118;12.146;2022-08-25T04:47:15;97608.16;;;15.05;90.32
62025;BME280;47978;49.118;12.146;2022-08-25T04:49:43;97622.25;;;15.00;90.55
62025;BME280;47978;49.118;12.146;2022-08-25T04:52:10;97624.56;;;14.90;90.96
62025;BME280;47978;49.118;12.146;2022-08-25T04:54:40;97631.13;;;14.85;91.35
62025;BME280;47978;49.118;12.146;2022-08-25T04:57:06;97629.69;;;14.70;91.82
62025;BME280;47978;49.118;12.146;2022-08-25T04:59:33;97633.78;;;14.64;92.62
62025;BME280;47978;49.118;12.146;2022-08-25T05:02:00;97627.56;;;14.67;92.69
62025;BME280;47978;49.118;12.146;2022-08-25T05:04:26;97629.38;;;14.54;93.84
62025;BME280;47978;49.118;12.146;2022-08-25T05:06:56;97628.72;;;14.57;94.13
62025;BME280;47978;49.118;12.146;2022-08-25T05:09:23;97628.88;;;14.70;93.80
62025;BME280;47978;49.118;12.146;2022-08-25T05:11:50;97636.88;;;14.80;93.43
62025;BME280;47978;49.118;12.146;2022-08-25T05:14:17;97636.03;;;14.88;93.10
62025;BME280;47978;49.118;12.146;2022-08-25T05:16:45;97637.03;;;14.92;92.84
62025;BME280;47978;49.118;12.146;2022-08-25T05:19:11;97631.25;;;15.06;92.58
62025;BME280;47978;49.118;12.146;2022-08-25T05:21:38;97632.22;;;15.10;92.52
62025;BME280;47978;49.118;12.146;2022-08-25T05:24:06;97631.69;;;15.17;92.04
62025;BME280;47978;49.118;12.146;2022-08-25T05:26:34;97634.47;;;15.25;91.88
62025;BME280;47978;49.118;12.146;2022-08-25T05:29:02;97629.84;;;15.29;91.66
62025;BME280;47978;49.118;12.146;2022-08-25T05:31:29;97625.38;;;15.46;90.85
62025;BME280;47978;49.118;12.146;2022-08-25T05:33:56;97632.66;;;15.68;90.25
62025;BME280;47978;49.118;12.146;2022-08-25T05:36:24;97629.50;;;15.78;89.71
62025;BME280;47978;49.118;12.146;2022-08-25T05:38:51;97634.09;;;16.04;89.25
62025;BME280;47978;49.118;12.146;2022-08-25T05:41:23;97625.25;;;16.23;88.98
62025;BME280;47978;49.118;12.146;2022-08-25T05:43:50;97634.19;;;16.37;87.77
62025;BME280;47978;49.118;12.146;2022-08-25T05:46:18;97626.88;;;16.45;88.49
62025;BME280;47978;49.118;12.146;2022-08-25T05:48:45;97624.50;;;16.55;88.64
62025;BME280;47978;49.118;12.146;2022-08-25T05:51:12;97625.00;;;16.70;88.29
62025;BME280;47978;49.118;12.146;2022-08-25T05:53:40;97624.78;;;16.96;87.30
62025;BME280;47978;49.118;12.146;2022-08-25T05:56:08;97623.56;;;16.84;88.96
62025;BME280;47978;49.118;12.146;2022-08-25T05:58:37;97614.59;;;17.24;88.59
62025;BME280;47978;49.118;12.146;2022-08-25T06:01:04;97620.69;;;17.63;85.48
62025;BME280;47978;49.118;12.146;2022-08-25T06:03:31;97619.28;;;18.06;85.25
62025;BME280;47978;49.118;12.146;2022-08-25T06:06:04;97611.28;;;18.45;82.40
62025;BME280;47978;49.118;12.146;2022-08-25T06:08:31;97612.06;;;18.86;80.96
62025;BME280;47978;49.118;12.146;2022-08-25T06:10:57;97608.75;;;18.68;82.08
62025;BME280;47978;49.118;12.146;2022-08-25T06:13:24;97599.63;;;18.99;81.40
62025;BME280;47978;49.118;12.146;2022-08-25T06:15:57;97599.63;;;18.99;82.13
62025;BME280;47978;49.118;12.146;2022-08-25T06:18:24;97594.69;;;19.40;80.53
62025;BME280;47978;49.118;12.146;2022-08-25T06:20:50;97595.22;;;19.93;78.76
62025;BME280;47978;49.118;12.146;2022-08-25T06:23:17;97591.59;;;19.93;80.33
62025;BME280;47978;49.118;12.146;2022-08-25T06:25:48;97589.91;;;20.08;78.93
62025;BME280;47978;49.118;12.146;2022-08-25T06:28:14;97590.31;;;20.26;79.98
62025;BME280;47978;49.118;12.146;2022-08-25T06:30:41;97581.34;;;20.55;78.57
62025;BME280;47978;49.118;12.146;2022-08-25T06:33:09;97588.94;;;20.74;78.24
62025;BME280;47978;49.118;12.146;2022-08-25T06:35:36;97585.53;;;21.04;77.21
62025;BME280;47978;49.118;12.146;2022-08-25T06:38:06;97578.50;;;21.17;76.94
62025;BME280;47978;49.118;12.146;2022-08-25T06:40:32;97585.56;;;21.50;75.22
62025;BME280;47978;49.118;12.146;2022-08-25T06:42:59;97577.53;;;21.75;76.21
62025;BME280;47978;49.118;12.146;2022-08-25T06:45:25;97580.13;;;22.40;72.75
62025;BME280;47978;49.118;12.146;2022-08-25T06:47:52;97583.25;;;22.35;73.75
62025;BME280;47978;49.118;12.146;2022-08-25T06:50:20;97582.25;;;22.84;72.39
62025;BME280;47978;49.118;12.146;2022-08-25T06:52:47;97576.44;;;23.41;70.72
62025;BME280;47978;49.118;12.146;2022-08-25T06:55:13;97584.63;;;23.12;71.29
62025;BME280;47978;49.118;12.146;2022-08-25T06:57:40;97575.22;;;22.67;74.09
62025;BME280;47978;49.118;12.146;2022-08-25T07:00:07;97584.44;;;22.64;73.94
62025;BME280;47978;49.118;12.146;2022-08-25T07:02:34;97573.63;;;23.00;70.19
62025;BME280;47978;49.118;12.146;2022-08-25T07:05:01;97578.22;;;23.19;70.49
62025;BME280;47978;49.118;12.146;2022-08-25T07:07:31;97574.03;;;23.43;69.03
62025;BME280;47978;49.118;12.146;2022-08-25T07:10:10;97572.59;;;23.67;67.99
62025;BME280;47978;49.118;12.146;2022-08-25T07:12:36;97581.66;;;23.87;67.06
62025;BME280;47978;49.118;12.146;2022-08-25T07:15:04;97571.19;;;23.88;67.50
62025;BME280;47978;49.118;12.146;2022-08-25T07:17:47;97578.59;;;24.10;66.46
62025;BME280;47978;49.118;12.146;2022-08-25T07:20:14;97576.63;;;24.14;65.18
62025;BME280;47978;49.118;12.146;2022-08-25T07:22:43;97576.59;;;24.11;65.20
62025;BME280;47978;49.118;12.146;2022-08-25T07:25:09;97581.41;;;24.10;63.73
62025;BME280;47978;49.118;12.146;2022-08-25T07:27:36;97577.78;;;24.10;64.37
62025;BME280;47978;49.118;12.146;2022-08-25T07:30:07;97572.16;;;24.13;64.53
62025;BME280;47978;49.118;12.146;2022-08-25T07:32:37;97576.81;;;24.46;63.31
62025;BME280;47978;49.118;12.146;2022-08-25T07:35:08;97571.06;;;24.32;64.24
62025;BME280;47978;49.118;12.146;2022-08-25T07:37:37;97575.97;;;24.42;63.99
62025;BME280;47978;49.118;12.146;2022-08-25T07:40:18;97573.63;;;24.59;62.22
62025;BME280;47978;49.118;12.146;2022-08-25T07:42:47;97567.59;;;24.57;62.57
62025;BME280;47978;49.118;12.146;2022-08-25T07:45:14;97568.50;;;24.86;62.27
62025;BME280;47978;49.118;12.146;2022-08-25T07:47:46;97574.69;;;25.20;60.88
62025;BME280;47978;49.118;12.146;2022-08-25T07:50:16;97573.00;;;25.05;60.71
62025;BME280;47978;49.118;12.146;2022-08-25T07:52:43;97570.91;;;24.84;61.70
62025;BME280;47978;49.118;12.146;2022-08-25T07:55:20;97571.41;;;25.07;61.30
62025;BME280;47978;49.118;12.146;2022-08-25T07:57:47;97572.19;;;25.01;61.26
62025;BME280;47978;49.118;12.146;2022-08-25T08:00:21;97570.19;;;25.12;61.31
62025;BME280;47978;49.118;12.146;2022-08-25T08:02:50;97569.41;;;25.15;61.31
62025;BME280;47978;49.118;12.146;2022-08-25T08:05:16;97569.78;;;25.10;61.26
62025;BME280;47978;49.118;12.146;2022-08-25T08:07:43;97563.78;;;25.22;61.05
62025;BME280;47978;49.118;12.146;2022-08-25T08:10:12;97564.94;;;25.10;61.46
62025;BME280;47978;49.118;12.146;2022-08-25T08:13:00;97571.84;;;25.17;61.30
62025;BME280;47978;49.118;12.146;2022-08-25T08:15:28;97577.94;;;25.29;61.21
62025;BME280;47978;49.118;12.146;2022-08-25T08:17:56;97585.19;;;25.20;61.15
62025;BME280;47978;49.118;12.146;2022-08-25T08:20:23;97589.53;;;24.96;61.84
62025;BME280;47978;49.118;12.146;2022-08-25T08:22:50;97588.34;;;24.97;62.47
62025;BME280;47978;49.118;12.146;2022-08-25T08:25:17;97583.91;;;25.10;61.89
62025;BME280;47978;49.118;12.146;2022-08-25T08:27:51;97588.38;;;25.07;61.92
62025;BME280;47978;49.118;12.146;2022-08-25T08:30:22;97583.50;;;25.01;61.92
62025;BME280;47978;49.118;12.146;2022-08-25T08:32:52;97588.84;;;25.17;62.04
62025;BME280;47978;49.118;12.146;2022-08-25T08:35:35;97593.56;;;24.87;62.35
62025;BME280;47978;49.118;12.146;2022-08-25T08:38:02;97595.50;;;24.69;63.32
62025;BME280;47978;49.118;12.146;2022-08-25T08:40:46;97589.06;;;24.76;63.20
62025;BME280;47978;49.118;12.146;2022-08-25T08:43:19;97588.19;;;24.64;63.49
62025;BME280;47978;49.118;12.146;2022-08-25T08:45:51;97592.94;;;24.42;64.08
62025;BME280;47978;49.118;12.146;2022-08-25T08:48:34;97582.88;;;24.45;64.53
62025;BME280;47978;49.118;12.146;2022-08-25T08:51:13;97587.50;;;24.12;65.13
62025;BME280;47978;49.118;12.146;2022-08-25T08:53:44;97582.19;;;24.04;65.58
62025;BME280;47978;49.118;12.146;2022-08-25T08:56:16;97582.81;;;23.79;66.29
62025;BME280;47978;49.118;12.146;2022-08-25T08:58:46;97577.69;;;23.95;65.99
62025;BME280;47978;49.118;12.146;2022-08-25T09:01:23;97585.03;;;24.04;65.92
62025;BME280;47978;49.118;12.146;2022-08-25T09:03:55;97584.91;;;23.89;66.59
62025;BME280;47978;49.118;12.146;2022-08-25T09:06:29;97581.66;;;23.87;66.92
62025;BME280;47978;49.118;12.146;2022-08-25T09:08:58;97586.25;;;24.06;66.27
62025;BME280;47978;49.118;12.146;2022-08-25T09:11:36;97584.31;;;24.17;65.63
62025;BME280;47978;49.118;12.146;2022-08-25T09:14:11;97581.91;;;24.23;65.70
62025;BME280;47978;49.118;12.146;2022-08-25T09:16:48;97573.00;;;24.21;65.34
62025;BME280;47978;49.118;12.146;2022-08-25T09:19:30;97573.00;;;24.14;65.78
62025;BME280;47978;49.118;12.146;2022-08-25T09:22:06;97566.50;;;24.10;65.56
62025;BME280;47978;49.118;12.146;2022-08-25T09:24:58;97554.84;;;24.18;65.31
62025;BME280;47978;49.118;12.146;2022-08-25T09:27:39;97553.72;;;24.37;65.04
62025;BME280;47978;49.118;12.146;2022-08-25T09:30:09;97558.63;;;24.48;64.78
62025;BME280;47978;49.118;12.146;2022-08-25T09:32:40;97537.25;;;24.46;64.15
62025;BME280;47978;49.118;12.146;2022-08-25T09:35:18;97537.75;;;24.77;63.70
62025;BME280;47978;49.118;12.146;2022-08-25T09:37:55;97531.38;;;25.02;63.03
62025;BME280;47978;49.118;12.146;2022-08-25T09:40:24;97542.69;;;25.02;60.79
62025;BME280;47978;49.118;12.146;2022-08-25T09:42:56;97528.53;;;25.02;62.36
62025;BME280;47978;49.118;12.146;2022-08-25T09:45:32;97526.97;;;25.26;61.76
62025;BME280;47978;49.118;12.146;2022-08-25T09:48:01;97518.09;;;25.60;60.45
62025;BME280;47978;49.118;12.146;2022-08-25T09:50:30;97519.72;;;25.68;58.69
62025;BME280;47978;49.118;12.146;2022-08-25T09:53:10;97516.03;;;25.78;58.36
62025;BME280;47978;49.118;12.146;2022-08-25T09:55:45;97521.31;;;25.90;57.07
62025;BME280;47978;49.118;12.146;2022-08-25T09:58:25;97524.16;;;25.94;56.75
62025;BME280;47978;49.118;12.146;2022-08-25T10:01:03;97514.00;;;26.03;57.39
62025;BME280;47978;49.118;12.146;2022-08-25T10:03:31;97506.75;;;25.99;57.83
62025;BME280;47978;49.118;12.146;2022-08-25T10:06:04;97516.06;;;25.96;57.25
62025;BME280;47978;49.118;12.146;2022-08-25T10:08:36;97513.56;;;26.16;57.02
62025;BME280;47978;49.118;12.146;2022-08-25T10:11:07;97510.31;;;26.17;55.89
62025;BME280;47978;49.118;12.146;2022-08-25T10:13:39;97509.47;;;26.24;56.37
62025;BME280;47978;49.118;12.146;2022-08-25T10:16:10;97510.34;;;26.10;56.07
62025;BME280;47978;49.118;12.146;2022-08-25T10:18:59;97507.13;;;26.05;54.98
62025;BME280;47978;49.118;12.146;2022-08-25T10:21:26;97498.22;;;26.02;55.46
62025;BME280;47978;49.118;12.146;2022-08-25T10:23:53;97508.72;;;26.13;55.21
62025;BME280;47978;49.118;12.146;2022-08-25T10:26:29;97505.06;;;26.12;55.01
62025;BME280;47978;49.118;12.146;2022-08-25T10:29:11;97497.31;;;26.31;55.22
62025;BME280;47978;49.118;12.146;2022-08-25T10:31:47;97497.66;;;26.47;53.97
62025;BME280;47978;49.118;12.146;2022-08-25T10:34:32;97497.75;;;26.22;54.05
62025;BME280;47978;49.118;12.146;2022-08-25T10:37:15;97490.09;;;26.12;54.75
62025;BME280;47978;49.118;12.146;2022-08-25T10:39:44;97483.59;;;26.15;54.39
62025;BME280;47978;49.118;12.146;2022-08-25T10:42:28;97486.84;;;26.13;55.00
62025;BME280;47978;49.118;12.146;2022-08-25T10:45:15;97476.72;;;26.16;54.94
62025;BME280;47978;49.118;12.146;2022-08-25T10:48:00;97476.25;;;26.28;55.01
62025;BME280;47978;49.118;12.146;2022-08-25T10:50:40;97455.91;;;26.44;54.55
62025;BME280;47978;49.118;12.146;2022-08-25T10:53:24;97463.53;;;26.68;54.18
62025;BME280;47978;49.118;12.146;2022-08-25T10:56:06;97457.41;;;26.77;53.55
62025;BME280;47978;49.118;12.146;2022-08-25T10:59:00;97465.50;;;26.75;54.12
62025;BME280;47978;49.118;12.146;2022-08-25T11:01:41;97464.63;;;26.89;52.09
62025;BME280;47978;49.118;12.146;2022-08-25T11:04:13;97458.13;;;26.88;54.03
62025;BME280;47978;49.118;12.146;2022-08-25T11:06:46;97458.09;;;26.96;51.73
62025;BME280;47978;49.118;12.146;2022-08-25T11:09:23;97451.09;;;27.11;52.34
62025;BME280;47978;49.118;12.146;2022-08-25T11:11:54;97443.75;;;27.17;52.11
62025;BME280;47978;49.118;12.146;2022-08-25T11:14:27;97457.63;;;27.04;51.16
62025;BME280;47978;49.118;12.146;2022-08-25T11:17:03;97458.28;;;26.67;52.09
62025;BME280;47978;49.118;12.146;2022-08-25T11:19:34;97452.97;;;26.76;52.54
62025;BME280;47978;49.118;12.146;2022-08-25T11:22:12;97448.19;;;26.62;52.50
62025;BME280;47978;49.118;12.146;2022-08-25T11:24:54;97465.53;;;26.72;52.78
62025;BME280;47978;49.118;12.146;2022-08-25T11:27:29;97451.59;;;26.95;52.05
62025;BME280;47978;49.118;12.146;2022-08-25T11:29:59;97454.81;;;27.01;52.21
62025;BME280;47978;49.118;12.146;2022-08-25T11:32:31;97447.34;;;27.25;52.10
62025;BME280;47978;49.118;12.146;2022-08-25T11:35:00;97449.22;;;27.42;51.60
62025;BME280;47978;49.118;12.146;2022-08-25T11:37:30;97451.31;;;27.38;52.46
62025;BME280;47978;49.118;12.146;2022-08-25T11:40:13;97450.47;;;27.41;51.51
62025;BME280;47978;49.118;12.146;2022-08-25T11:42:54;97436.28;;;27.38;53.14
62025;BME280;47978;49.118;12.146;2022-08-25T11:45:41;97439.72;;;27.59;53.73
62025;BME280;47978;49.118;12.146;2022-08-25T11:48:17;97432.25;;;27.76;49.34
62025;BME280;47978;49.118;12.146;2022-08-25T11:50:57;97433.72;;;27.92;49.99
62025;BME280;47978;49.118;12.146;2022-08-25T11:53:27;97432.41;;;28.03;51.75
62025;BME280;47978;49.118;12.146;2022-08-25T11:55:56;97434.06;;;28.01;48.68
62025;BME280;47978;49.118;12.146;2022-08-25T11:58:36;97428.72;;;28.07;49.14
62025;BME280;47978;49.118;12.146;2022-08-25T12:01:08;97423.53;;;28.29;49.83
62025;BME280;47978;49.118;12.146;2022-08-25T12:03:49;97417.69;;;28.09;50.00
62025;BME280;47978;49.118;12.146;2022-08-25T12:06:23;97414.00;;;28.12;49.73
62025;BME280;47978;49.118;12.146;2022-08-25T12:09:18;97416.84;;;27.74;50.58
62025;BME280;47978;49.118;12.146;2022-08-25T12:11:48;97412.16;;;27.56;51.16
62025;BME280;47978;49.118;12.146;2022-08-25T12:14:35;97412.25;;;27.49;50.84
62025;BME280;47978;49.118;12.146;2022-08-25T12:17:07;97409.88;;;27.44;51.56
62025;BME280;47978;49.118;12.146;2022-08-25T12:19:56;97414.03;;;27.32;51.06
62025;BME280;47978;49.118;12.146;2022-08-25T12:22:55;97414.19;;;27.11;52.08
62025;BME280;47978;49.118;12.146;2022-08-25T12:25:38;97406.97;;;26.99;53.80
62025;BME280;47978;49.118;12.146;2022-08-25T12:31:16;97411.06;;;26.95;54.40
62025;BME280;47978;49.118;12.146;2022-08-25T12:33:59;97417.59;;;26.88;53.36
62025;BME280;47978;49.118;12.146;2022-08-25T12:36:33;97416.00;;;26.87;52.82
62025;BME280;47978;49.118;12.146;2022-08-25T12:39:16;97411.31;;;26.55;54.57
62025;BME280;47978;49.118;12.146;2022-08-25T12:41:55;97412.00;;;26.77;55.10
62025;BME280;47978;49.118;12.146;2022-08-25T12:44:41;97398.97;;;26.87;54.43
62025;BME280;47978;49.118;12.146;2022-08-25T12:47:23;97403.88;;;26.79;55.00
62025;BME280;47978;49.118;12.146;2022-08-25T12:49:50;97405.53;;;26.77;54.25
62025;BME280;47978;49.118;12.146;2022-08-25T12:52:20;97405.63;;;26.62;55.92
62025;BME280;47978;49.118;12.146;2022-08-25T12:54:57;97401.91;;;26.69;56.14
62025;BME280;47978;49.118;12.146;2022-08-25T12:57:39;97398.66;;;26.74;56.59
62025;BME280;47978;49.118;12.146;2022-08-25T13:00:15;97385.63;;;26.80;55.15
62025;BME280;47978;49.118;12.146;2022-08-25T13:03:06;97384.72;;;26.94;54.36
62025;BME280;47978;49.118;12.146;2022-08-25T13:05:49;97381.78;;;27.05;53.54
62025;BME280;47978;49.118;12.146;2022-08-25T13:08:49;97374.81;;;27.17;52.27
62025;BME280;47978;49.118;12.146;2022-08-25T13:11:24;97375.78;;;27.44;51.27
62025;BME280;47978;49.118;12.146;2022-08-25T13:14:03;97379.78;;;27.50;52.50